sensor_id;sensor_type;location;lat;lon;timestamp;pressure;altitude;pressure_sealevel;temperature;humidity
32735;BME280;19112;51.076;3.706;2023-05-27T00:00:08;102663.13;;;14.27;58.45
32735;BME280;19112;51.076;3.706;2023-05-27T00:02:34;102680.09;;;14.32;58.37
32735;BME280;19112;51.076;3.706;2023-05-27T00:05:01;102461.66;;;13.00;58.72
32735;BME280;19112;51.076;3.706;2023-05-27T00:07:28;102211.47;;;11.44;59.20
32735;BME280;19112;51.076;3.706;2023-05-27T00:09:54;102784.84;;;14.48;59.17
32735;BME280;19112;51.076;3.706;2023-05-27T00:12:20;102190.72;;;11.33;59.06
32735;BME280;19112;51.076;3.706;2023-05-27T00:14:46;102553.03;;;13.34;59.33
32735;BME280;19112;51.076;3.706;2023-05-27T00:17:12;102382.16;;;12.39;59.41
32735;BME280;19112;51.076;3.706;2023-05-27T00:19:41;102475.34;;;12.93;59.24
32735;BME280;19112;51.076;3.706;2023-05-27T00:22:11;102637.91;;;13.79;59.51
32735;BME280;19112;51.076;3.706;2023-05-27T00:24:37;102744.28;;;14.30;59.79
32735;BME280;19112;51.076;3.706;2023-05-27T00:27:08;102470.13;;;12.77;60.30
32735;BME280;19112;51.076;3.706;2023-05-27T00:29:35;102704.53;;;14.09;59.99
32735;BME280;19112;51.076;3.706;2023-05-27T00:32:02;102410.56;;;12.45;60.07
32735;BME280;19112;51.076;3.706;2023-05-27T00:34:30;102219.31;;;11.43;59.49
32735;BME280;19112;51.076;3.706;2023-05-27T00:36:57;102478.22;;;12.80;59.81
32735;BME280;19112;51.076;3.706;2023-05-27T00:39:22;102727.25;;;14.23;60.13
32735;BME280;19112;51.076;3.706;2023-05-27T00:41:49;102485.34;;;12.82;60.12
32735;BME280;19112;51.076;3.706;2023-05-27T00:44:17;102150.78;;;10.89;60.02
32735;BME280;19112;51.076;3.706;2023-05-27T00:46:47;102699.47;;;13.96;60.10
32735;BME280;19112;51.076;3.706;2023-05-27T00:49:13;102385.94;;;12.26;60.08
32735;BME280;19112;51.076;3.706;2023-05-27T00:51:39;102726.94;;;14.17;60.13
32735;BME280;19112;51.076;3.706;2023-05-27T00:54:07;102457.53;;;12.53;60.17
32735;BME280;19112;51.076;3.706;2023-05-27T00:56:33;102334.91;;;11.90;60.54
32735;BME280;19112;51.076;3.706;2023-05-27T00:58:59;102304.91;;;11.70;60.55
32735;BME280;19112;51.076;3.706;2023-05-27T01:01:25;102635.03;;;13.56;60.47
32735;BME280;19112;51.076;3.706;2023-05-27T01:03:52;102638.34;;;13.52;60.65
32735;BME280;19112;51.076;3.706;2023-05-27T01:10:10;102691.06;;;13.69;60.81
32735;BME280;19112;51.076;3.706;2023-05-27T01:12:52;102521.72;;;12.72;61.28
32735;BME280;19112;51.076;3.706;2023-05-27T01:15:21;102679.00;;;13.56;61.39
32735;BME280;19112;51.076;3.706;2023-05-27T01:17:48;102636.59;;;13.35;61.22
32735;BME280;19112;51.076;3.706;2023-05-27T01:20:16;102639.84;;;13.47;60.91
32735;BME280;19112;51.076;3.706;2023-05-27T01:22:43;102498.75;;;12.69;61.29
32735;BME280;19112;51.076;3.706;2023-05-27T01:25:09;102605.78;;;13.34;61.43
32735;BME280;19112;51.076;3.706;2023-05-27T01:27:35;102409.34;;;12.04;61.11
32735;BME280;19112;51.076;3.706;2023-05-27T01:30:02;102617.84;;;13.29;61.39
32735;BME280;19112;51.076;3.706;2023-05-27T01:32:40;102660.69;;;13.59;61.28
32735;BME280;19112;51.076;3.706;2023-05-27T01:35:29;102708.97;;;13.74;61.42
32735;BME280;19112;51.076;3.706;2023-05-27T01:38:00;102648.06;;;13.35;61.73
32735;BME280;19112;51.076;3.706;2023-05-27T01:40:28;102047.59;;;9.63;61.86
32735;BME280;19112;51.076;3.706;2023-05-27T01:42:56;102671.13;;;13.40;61.90
32735;BME280;19112;51.076;3.706;2023-05-27T01:45:23;102605.44;;;12.94;62.35
32735;BME280;19112;51.076;3.706;2023-05-27T01:47:50;102470.84;;;12.22;62.03
32735;BME280;19112;51.076;3.706;2023-05-27T01:50:16;102262.38;;;11.12;61.90
32735;BME280;19112;51.076;3.706;2023-05-27T01:52:41;102688.03;;;13.43;62.32
32735;BME280;19112;51.076;3.706;2023-05-27T01:55:08;102522.09;;;12.45;62.31
32735;BME280;19112;51.076;3.706;2023-05-27T01:57:34;102703.28;;;13.49;62.05
32735;BME280;19112;51.076;3.706;2023-05-27T02:00:00;102513.34;;;12.46;62.16
32735;BME280;19112;51.076;3.706;2023-05-27T02:02:27;102456.38;;;12.14;62.34
32735;BME280;19112;51.076;3.706;2023-05-27T02:04:53;101954.28;;;9.19;62.41
32735;BME280;19112;51.076;3.706;2023-05-27T02:07:18;102675.94;;;13.30;62.60
32735;BME280;19112;51.076;3.706;2023-05-27T02:09:46;102667.63;;;13.23;62.79
32735;BME280;19112;51.076;3.706;2023-05-27T02:12:12;102581.34;;;12.70;62.80
32735;BME280;19112;51.076;3.706;2023-05-27T02:14:38;102580.38;;;12.68;63.35
32735;BME280;19112;51.076;3.706;2023-05-27T02:17:05;102499.56;;;12.18;63.14
32735;BME280;19112;51.076;3.706;2023-05-27T02:19:32;102452.69;;;11.94;62.94
32735;BME280;19112;51.076;3.706;2023-05-27T02:21:57;102586.75;;;12.73;63.10
32735;BME280;19112;51.076;3.706;2023-05-27T02:24:23;102723.09;;;13.24;63.10
32735;BME280;19112;51.076;3.706;2023-05-27T02:26:49;102675.78;;;13.27;62.49
32735;BME280;19112;51.076;3.706;2023-05-27T02:29:15;102403.00;;;11.68;62.87
32735;BME280;19112;51.076;3.706;2023-05-27T02:31:41;102580.72;;;12.57;63.18
32735;BME280;19112;51.076;3.706;2023-05-27T02:34:07;102711.81;;;13.10;63.28
32735;BME280;19112;51.076;3.706;2023-05-27T02:36:33;102688.31;;;12.99;63.70
32735;BME280;19112;51.076;3.706;2023-05-27T02:39:00;102512.09;;;12.05;63.60
32735;BME280;19112;51.076;3.706;2023-05-27T02:41:26;102671.34;;;12.94;64.03
32735;BME280;19112;51.076;3.706;2023-05-27T02:43:52;102674.66;;;12.90;64.05
32735;BME280;19112;51.076;3.706;2023-05-27T02:46:18;102690.06;;;12.82;64.25
32735;BME280;19112;51.076;3.706;2023-05-27T02:48:43;102322.47;;;10.90;64.15
32735;BME280;19112;51.076;3.706;2023-05-27T02:51:09;102531.16;;;11.85;63.79
32735;BME280;19112;51.076;3.706;2023-05-27T02:53:37;102294.38;;;10.72;64.02
32735;BME280;19112;51.076;3.706;2023-05-27T02:56:03;102568.78;;;12.31;64.25
32735;BME280;19112;51.076;3.706;2023-05-27T02:58:28;101995.31;;;9.04;63.79
32735;BME280;19112;51.076;3.706;2023-05-27T03:00:54;102536.69;;;12.06;64.07
32735;BME280;19112;51.076;3.706;2023-05-27T03:03:20;102620.25;;;12.57;63.91
32735;BME280;19112;51.076;3.706;2023-05-27T03:05:46;102377.56;;;11.19;64.03
32735;BME280;19112;51.076;3.706;2023-05-27T03:08:12;102352.97;;;11.02;63.87
32735;BME280;19112;51.076;3.706;2023-05-27T03:10:38;102665.09;;;12.75;64.21
32735;BME280;19112;51.076;3.706;2023-05-27T03:13:04;102643.53;;;12.66;64.37
32735;BME280;19112;51.076;3.706;2023-05-27T03:15:30;102576.19;;;12.22;64.06
32735;BME280;19112;51.076;3.706;2023-05-27T03:17:57;102658.25;;;12.46;64.36
32735;BME280;19112;51.076;3.706;2023-05-27T03:20:23;102653.00;;;12.63;64.12
32735;BME280;19112;51.076;3.706;2023-05-27T03:22:49;102309.94;;;10.69;63.90
32735;BME280;19112;51.076;3.706;2023-05-27T03:25:16;102652.50;;;12.53;64.31
32735;BME280;19112;51.076;3.706;2023-05-27T03:27:41;102669.41;;;12.57;64.68
32735;BME280;19112;51.076;3.706;2023-05-27T03:30:08;102430.72;;;11.14;64.62
32735;BME280;19112;51.076;3.706;2023-05-27T03:32:34;102682.47;;;12.55;64.58
32735;BME280;19112;51.076;3.706;2023-05-27T03:35:00;102644.91;;;12.27;64.92
32735;BME280;19112;51.076;3.706;2023-05-27T03:37:26;102687.06;;;12.43;65.30
32735;BME280;19112;51.076;3.706;2023-05-27T03:39:52;102708.31;;;12.46;65.02
32735;BME280;19112;51.076;3.706;2023-05-27T03:42:19;102619.88;;;12.19;64.77
32735;BME280;19112;51.076;3.706;2023-05-27T03:44:45;102640.94;;;12.35;64.97
32735;BME280;19112;51.076;3.706;2023-05-27T03:47:10;102471.41;;;11.06;65.06
32735;BME280;19112;51.076;3.706;2023-05-27T03:49:36;102663.28;;;12.42;64.91
32735;BME280;19112;51.076;3.706;2023-05-27T03:52:05;102672.50;;;12.50;64.87
32735;BME280;19112;51.076;3.706;2023-05-27T03:54:31;102585.66;;;11.88;64.89
32735;BME280;19112;51.076;3.706;2023-05-27T03:56:57;102581.66;;;11.94;64.69
32735;BME280;19112;51.076;3.706;2023-05-27T03:59:23;102660.97;;;12.31;65.13
32735;BME280;19112;51.076;3.706;2023-05-27T04:01:49;102618.88;;;12.17;64.82
32735;BME280;19112;51.076;3.706;2023-05-27T04:04:15;102334.88;;;10.61;64.96
32735;BME280;19112;51.076;3.706;2023-05-27T04:06:41;101721.13;;;6.78;64.22
32735;BME280;19112;51.076;3.706;2023-05-27T04:09:07;102660.56;;;12.40;64.80
32735;BME280;19112;51.076;3.706;2023-05-27T04:11:34;102313.06;;;10.47;64.55
32735;BME280;19112;51.076;3.706;2023-05-27T04:14:00;102642.09;;;12.40;64.63
32735;BME280;19112;51.076;3.706;2023-05-27T04:16:26;102561.75;;;11.83;65.14
32735;BME280;19112;51.076;3.706;2023-05-27T04:18:52;102508.66;;;11.44;64.65
32735;BME280;19112;51.076;3.706;2023-05-27T04:21:19;102655.41;;;12.58;64.51
32735;BME280;19112;51.076;3.706;2023-05-27T04:23:45;102573.16;;;12.15;64.21
32735;BME280;19112;51.076;3.706;2023-05-27T04:26:11;102686.59;;;12.67;64.05
32735;BME280;19112;51.076;3.706;2023-05-27T04:28:38;102500.81;;;11.61;64.27
32735;BME280;19112;51.076;3.706;2023-05-27T04:31:05;102525.13;;;11.88;64.12
32735;BME280;19112;51.076;3.706;2023-05-27T04:33:31;102552.41;;;12.21;63.85
32735;BME280;19112;51.076;3.706;2023-05-27T04:35:56;102617.59;;;12.57;63.78
32735;BME280;19112;51.076;3.706;2023-05-27T04:38:23;102451.25;;;11.68;63.52
32735;BME280;19112;51.076;3.706;2023-05-27T04:40:49;102334.44;;;11.16;63.13
32735;BME280;19112;51.076;3.706;2023-05-27T04:43:19;102514.88;;;12.09;63.43
32735;BME280;19112;51.076;3.706;2023-05-27T04:45:47;102432.91;;;11.70;63.26
32735;BME280;19112;51.076;3.706;2023-05-27T04:48:14;102376.56;;;11.17;63.60
32735;BME280;19112;51.076;3.706;2023-05-27T04:50:43;102618.66;;;12.61;63.98
32735;BME280;19112;51.076;3.706;2023-05-27T04:53:09;102612.47;;;12.61;63.78
32735;BME280;19112;51.076;3.706;2023-05-27T04:55:35;102560.38;;;12.39;63.57
32735;BME280;19112;51.076;3.706;2023-05-27T04:58:02;102474.50;;;11.77;63.39
32735;BME280;19112;51.076;3.706;2023-05-27T05:00:30;102385.47;;;11.36;63.50
32735;BME280;19112;51.076;3.706;2023-05-27T05:03:05;102603.69;;;12.44;63.78
32735;BME280;19112;51.076;3.706;2023-05-27T05:05:32;102299.56;;;10.87;63.61
32735;BME280;19112;51.076;3.706;2023-05-27T05:07:58;102254.44;;;10.63;63.70
32735;BME280;19112;51.076;3.706;2023-05-27T05:10:24;102532.16;;;12.36;62.79
32735;BME280;19112;51.076;3.706;2023-05-27T05:12:51;102638.56;;;12.89;63.10
32735;BME280;19112;51.076;3.706;2023-05-27T05:15:17;102644.28;;;13.14;62.96
32735;BME280;19112;51.076;3.706;2023-05-27T05:17:43;102295.97;;;11.18;62.71
32735;BME280;19112;51.076;3.706;2023-05-27T05:20:09;102345.22;;;11.37;62.58
32735;BME280;19112;51.076;3.706;2023-05-27T05:22:36;102611.41;;;12.90;63.35
32735;BME280;19112;51.076;3.706;2023-05-27T05:25:02;102624.03;;;12.79;63.15
32735;BME280;19112;51.076;3.706;2023-05-27T05:27:28;102416.31;;;11.87;62.72
32735;BME280;19112;51.076;3.706;2023-05-27T05:29:54;102219.41;;;10.63;62.94
32735;BME280;19112;51.076;3.706;2023-05-27T05:32:20;102288.66;;;10.96;63.35
32735;BME280;19112;51.076;3.706;2023-05-27T05:34:46;102364.44;;;11.36;63.31
32735;BME280;19112;51.076;3.706;2023-05-27T05:37:12;102514.97;;;12.26;63.62
32735;BME280;19112;51.076;3.706;2023-05-27T05:39:38;102450.31;;;11.83;63.28
32735;BME280;19112;51.076;3.706;2023-05-27T05:42:04;102552.97;;;12.48;63.26
32735;BME280;19112;51.076;3.706;2023-05-27T05:44:30;102637.88;;;13.09;63.74
32735;BME280;19112;51.076;3.706;2023-05-27T05:46:56;102360.00;;;11.51;63.24
32735;BME280;19112;51.076;3.706;2023-05-27T05:49:22;102123.38;;;10.35;62.91
32735;BME280;19112;51.076;3.706;2023-05-27T05:51:48;102496.66;;;12.46;62.79
32735;BME280;19112;51.076;3.706;2023-05-27T05:54:13;102624.25;;;13.34;62.76
32735;BME280;19112;51.076;3.706;2023-05-27T05:56:39;102625.53;;;13.42;62.61
32735;BME280;19112;51.076;3.706;2023-05-27T05:59:05;102250.13;;;11.29;62.33
32735;BME280;19112;51.076;3.706;2023-05-27T06:01:31;102527.03;;;12.90;62.39
32735;BME280;19112;51.076;3.706;2023-05-27T06:03:58;101903.63;;;9.35;61.84
32735;BME280;19112;51.076;3.706;2023-05-27T06:06:24;102317.41;;;11.74;62.12
32735;BME280;19112;51.076;3.706;2023-05-27T06:08:50;102619.19;;;13.56;62.48
32735;BME280;19112;51.076;3.706;2023-05-27T06:11:16;102614.53;;;13.69;61.84
32735;BME280;19112;51.076;3.706;2023-05-27T06:13:42;102490.78;;;13.03;61.49
32735;BME280;19112;51.076;3.706;2023-05-27T06:16:08;102546.97;;;13.54;60.97
32735;BME280;19112;51.076;3.706;2023-05-27T06:18:33;102268.09;;;12.22;60.50
32735;BME280;19112;51.076;3.706;2023-05-27T06:20:59;102534.44;;;13.68;60.44
32735;BME280;19112;51.076;3.706;2023-05-27T06:23:25;102456.75;;;13.44;59.93
32735;BME280;19112;51.076;3.706;2023-05-27T06:25:51;102610.53;;;14.51;59.43
32735;BME280;19112;51.076;3.706;2023-05-27T06:28:17;102471.63;;;13.61;59.18
32735;BME280;19112;51.076;3.706;2023-05-27T06:30:43;102238.13;;;12.38;58.95
32735;BME280;19112;51.076;3.706;2023-05-27T06:33:09;102512.66;;;13.92;59.02
32735;BME280;19112;51.076;3.706;2023-05-27T06:35:35;102444.34;;;13.60;59.40
32735;BME280;19112;51.076;3.706;2023-05-27T06:38:01;102485.84;;;14.02;58.94
32735;BME280;19112;51.076;3.706;2023-05-27T06:40:27;102051.91;;;11.61;57.90
32735;BME280;19112;51.076;3.706;2023-05-27T06:42:54;102615.31;;;14.79;58.87
32735;BME280;19112;51.076;3.706;2023-05-27T06:45:20;102424.34;;;13.66;58.15
32735;BME280;19112;51.076;3.706;2023-05-27T06:47:46;102369.75;;;13.45;58.18
32735;BME280;19112;51.076;3.706;2023-05-27T06:50:12;102459.09;;;14.13;57.87
32735;BME280;19112;51.076;3.706;2023-05-27T06:52:40;102410.84;;;13.79;57.91
32735;BME280;19112;51.076;3.706;2023-05-27T06:55:07;102560.59;;;14.57;57.85
32735;BME280;19112;51.076;3.706;2023-05-27T06:57:33;102356.06;;;13.73;57.39
32735;BME280;19112;51.076;3.706;2023-05-27T06:59:58;102524.78;;;14.85;57.53
32735;BME280;19112;51.076;3.706;2023-05-27T07:02:25;102609.94;;;15.39;57.19
32735;BME280;19112;51.076;3.706;2023-05-27T07:04:50;102447.09;;;14.41;57.34
32735;BME280;19112;51.076;3.706;2023-05-27T07:07:19;102602.59;;;15.32;57.08
32735;BME280;19112;51.076;3.706;2023-05-27T07:09:45;102516.75;;;14.62;57.21
32735;BME280;19112;51.076;3.706;2023-05-27T07:12:11;102497.75;;;14.71;57.32
32735;BME280;19112;51.076;3.706;2023-05-27T07:14:37;102257.72;;;13.37;56.91
32735;BME280;19112;51.076;3.706;2023-05-27T07:17:03;102514.84;;;15.00;56.48
32735;BME280;19112;51.076;3.706;2023-05-27T07:19:29;101924.53;;;11.75;56.15
32735;BME280;19112;51.076;3.706;2023-05-27T07:21:55;102479.28;;;15.14;56.10
32735;BME280;19112;51.076;3.706;2023-05-27T07:24:20;102267.47;;;14.22;55.78
32735;BME280;19112;51.076;3.706;2023-05-27T07:26:46;102418.72;;;15.22;55.54
32735;BME280;19112;51.076;3.706;2023-05-27T07:29:12;102326.19;;;14.56;55.51
32735;BME280;19112;51.076;3.706;2023-05-27T07:31:38;102380.31;;;14.87;55.23
32735;BME280;19112;51.076;3.706;2023-05-27T07:34:04;102576.25;;;15.77;55.44
32735;BME280;19112;51.076;3.706;2023-05-27T07:36:30;102456.16;;;15.31;54.84
32735;BME280;19112;51.076;3.706;2023-05-27T07:38:56;102575.50;;;16.03;55.12
32735;BME280;19112;51.076;3.706;2023-05-27T07:41:22;102568.41;;;16.24;54.34
32735;BME280;19112;51.076;3.706;2023-05-27T07:43:48;102471.75;;;15.68;54.27
32735;BME280;19112;51.076;3.706;2023-05-27T07:46:14;102557.38;;;16.38;54.04
32735;BME280;19112;51.076;3.706;2023-05-27T07:48:40;102581.13;;;16.35;54.12
32735;BME280;19112;51.076;3.706;2023-05-27T07:51:05;102285.13;;;14.87;53.46
32735;BME280;19112;51.076;3.706;2023-05-27T07:53:31;102564.13;;;16.30;53.66
32735;BME280;19112;51.076;3.706;2023-05-27T07:55:57;102414.75;;;15.56;53.80
32735;BME280;19112;51.076;3.706;2023-05-27T07:58:23;102440.16;;;15.97;53.95
32735;BME280;19112;51.076;3.706;2023-05-27T08:00:48;102527.66;;;16.46;53.22
32735;BME280;19112;51.076;3.706;2023-05-27T08:03:14;102593.00;;;16.68;52.64
32735;BME280;19112;51.076;3.706;2023-05-27T08:05:40;102198.22;;;14.74;52.71
32735;BME280;19112;51.076;3.706;2023-05-27T08:08:06;102451.47;;;16.41;52.02
32735;BME280;19112;51.076;3.706;2023-05-27T08:10:32;102451.38;;;16.39;51.60
32735;BME280;19112;51.076;3.706;2023-05-27T08:12:58;102434.91;;;16.22;51.31
32735;BME280;19112;51.076;3.706;2023-05-27T08:15:24;102550.00;;;17.02;51.45
32735;BME280;19112;51.076;3.706;2023-05-27T08:17:50;102241.38;;;15.44;51.57
32735;BME280;19112;51.076;3.706;2023-05-27T08:20:16;102262.63;;;15.70;51.13
32735;BME280;19112;51.076;3.706;2023-05-27T08:22:43;102530.38;;;17.24;52.33
32735;BME280;19112;51.076;3.706;2023-05-27T08:25:09;102249.63;;;16.03;51.10
32735;BME280;19112;51.076;3.706;2023-05-27T08:27:52;102126.78;;;15.73;50.40
32735;BME280;19112;51.076;3.706;2023-05-27T08:30:19;102375.56;;;16.97;52.15
32735;BME280;19112;51.076;3.706;2023-05-27T08:32:45;102438.22;;;17.20;50.26
32735;BME280;19112;51.076;3.706;2023-05-27T08:35:12;102173.78;;;15.80;50.86
32735;BME280;19112;51.076;3.706;2023-05-27T08:37:38;102145.34;;;15.49;50.40
32735;BME280;19112;51.076;3.706;2023-05-27T08:40:13;102407.22;;;16.91;51.12
32735;BME280;19112;51.076;3.706;2023-05-27T08:42:40;102328.13;;;16.52;50.20
32735;BME280;19112;51.076;3.706;2023-05-27T08:45:10;102318.38;;;16.78;50.12
32735;BME280;19112;51.076;3.706;2023-05-27T08:47:38;102373.75;;;17.24;49.67
32735;BME280;19112;51.076;3.706;2023-05-27T08:50:06;102488.78;;;17.79;49.56
32735;BME280;19112;51.076;3.706;2023-05-27T08:52:33;102230.41;;;16.09;49.93
32735;BME280;19112;51.076;3.706;2023-05-27T08:55:00;102278.34;;;16.43;50.62
32735;BME280;19112;51.076;3.706;2023-05-27T08:57:31;102254.78;;;16.26;50.49
32735;BME280;19112;51.076;3.706;2023-05-27T08:59:58;102418.25;;;17.32;49.81
32735;BME280;19112;51.076;3.706;2023-05-27T09:02:24;102230.28;;;16.33;49.91
32735;BME280;19112;51.076;3.706;2023-05-27T09:04:52;102498.59;;;17.83;49.84
32735;BME280;19112;51.076;3.706;2023-05-27T09:07:21;102160.91;;;16.19;49.15
32735;BME280;19112;51.076;3.706;2023-05-27T09:09:56;102494.13;;;17.80;49.40
32735;BME280;19112;51.076;3.706;2023-05-27T09:12:28;102152.41;;;16.01;49.21
32735;BME280;19112;51.076;3.706;2023-05-27T09:14:54;102240.28;;;16.70;49.21
32735;BME280;19112;51.076;3.706;2023-05-27T09:17:23;102394.50;;;17.68;49.55
32735;BME280;19112;51.076;3.706;2023-05-27T09:19:53;102149.19;;;16.39;48.80
32735;BME280;19112;51.076;3.706;2023-05-27T09:22:27;102457.97;;;18.17;49.14
32735;BME280;19112;51.076;3.706;2023-05-27T09:24:54;102445.31;;;18.09;48.41
32735;BME280;19112;51.076;3.706;2023-05-27T09:27:31;102292.00;;;17.43;48.41
32735;BME280;19112;51.076;3.706;2023-05-27T09:30:05;102332.34;;;17.91;48.48
32735;BME280;19112;51.076;3.706;2023-05-27T09:32:33;102409.94;;;18.77;47.81
32735;BME280;19112;51.076;3.706;2023-05-27T09:35:00;102442.78;;;19.16;47.67
32735;BME280;19112;51.076;3.706;2023-05-27T09:37:29;102360.69;;;18.60;47.48
32735;BME280;19112;51.076;3.706;2023-05-27T09:40:00;102332.94;;;18.49;47.51
32735;BME280;19112;51.076;3.706;2023-05-27T09:42:26;102447.31;;;19.18;46.83
32735;BME280;19112;51.076;3.706;2023-05-27T09:44:54;102292.88;;;18.43;46.48
32735;BME280;19112;51.076;3.706;2023-05-27T09:47:21;102442.41;;;19.38;46.35
32735;BME280;19112;51.076;3.706;2023-05-27T09:49:49;102371.19;;;18.90;45.84
32735;BME280;19112;51.076;3.706;2023-05-27T09:52:18;102361.28;;;18.84;46.06
32735;BME280;19112;51.076;3.706;2023-05-27T09:54:47;102185.47;;;18.00;46.33
32735;BME280;19112;51.076;3.706;2023-05-27T09:57:14;101906.19;;;16.38;45.82
32735;BME280;19112;51.076;3.706;2023-05-27T09:59:41;102346.81;;;19.11;45.95
32735;BME280;19112;51.076;3.706;2023-05-27T10:02:07;102431.88;;;19.43;45.87
32735;BME280;19112;51.076;3.706;2023-05-27T10:04:33;102436.84;;;19.27;45.80
32735;BME280;19112;51.076;3.706;2023-05-27T10:07:00;102424.22;;;19.58;45.88
32735;BME280;19112;51.076;3.706;2023-05-27T10:09:27;102423.28;;;19.56;45.51
32735;BME280;19112;51.076;3.706;2023-05-27T10:11:53;102200.38;;;18.29;45.27
32735;BME280;19112;51.076;3.706;2023-05-27T10:14:20;102228.31;;;18.48;45.62
32735;BME280;19112;51.076;3.706;2023-05-27T10:16:55;102400.34;;;19.61;45.22
32735;BME280;19112;51.076;3.706;2023-05-27T10:19:21;102399.06;;;19.86;45.20
32735;BME280;19112;51.076;3.706;2023-05-27T10:21:47;102403.91;;;20.07;44.65
32735;BME280;19112;51.076;3.706;2023-05-27T10:24:13;102400.13;;;19.96;46.24
32735;BME280;19112;51.076;3.706;2023-05-27T10:26:44;102115.06;;;18.19;45.63
32735;BME280;19112;51.076;3.706;2023-05-27T10:29:12;102391.09;;;19.87;44.67
32735;BME280;19112;51.076;3.706;2023-05-27T10:31:50;102234.31;;;19.21;44.58
32735;BME280;19112;51.076;3.706;2023-05-27T10:34:17;102298.56;;;19.38;45.24
32735;BME280;19112;51.076;3.706;2023-05-27T10:36:45;102386.00;;;20.00;44.99
32735;BME280;19112;51.076;3.706;2023-05-27T10:39:18;102378.50;;;20.27;45.19
32735;BME280;19112;51.076;3.706;2023-05-27T10:41:53;102125.94;;;19.16;43.97
32735;BME280;19112;51.076;3.706;2023-05-27T10:44:36;102199.00;;;19.31;43.10
32735;BME280;19112;51.076;3.706;2023-05-27T10:47:08;102390.06;;;20.28;44.03
32735;BME280;19112;51.076;3.706;2023-05-27T10:49:37;102252.50;;;19.89;43.23
32735;BME280;19112;51.076;3.706;2023-05-27T10:52:12;102184.53;;;19.64;43.51
32735;BME280;19112;51.076;3.706;2023-05-27T10:54:40;102203.63;;;19.88;43.24
32735;BME280;19112;51.076;3.706;2023-05-27T10:57:07;102247.25;;;20.47;43.19
32735;BME280;19112;51.076;3.706;2023-05-27T10:59:56;102361.22;;;21.13;42.07
32735;BME280;19112;51.076;3.706;2023-05-27T11:02:24;102191.78;;;20.29;41.84
32735;BME280;19112;51.076;3.706;2023-05-27T11:04:56;102307.50;;;20.90;42.24
32735;BME280;19112;51.076;3.706;2023-05-27T11:07:22;102337.91;;;21.01;42.64
32735;BME280;19112;51.076;3.706;2023-05-27T11:09:50;102175.78;;;20.27;42.07
32735;BME280;19112;51.076;3.706;2023-05-27T11:12:18;102326.34;;;21.01;41.14
32735;BME280;19112;51.076;3.706;2023-05-27T11:14:49;102258.38;;;20.79;42.21
32735;BME280;19112;51.076;3.706;2023-05-27T11:17:15;102197.69;;;20.65;42.30
32735;BME280;19112;51.076;3.706;2023-05-27T11:19:42;102341.94;;;21.34;42.19
32735;BME280;19112;51.076;3.706;2023-05-27T11:22:10;102303.25;;;21.06;41.54
32735;BME280;19112;51.076;3.706;2023-05-27T11:24:36;102329.13;;;21.10;41.79
32735;BME280;19112;51.076;3.706;2023-05-27T11:27:14;102252.16;;;20.80;43.06
32735;BME280;19112;51.076;3.706;2023-05-27T11:29:52;102230.06;;;20.90;41.43
32735;BME280;19112;51.076;3.706;2023-05-27T11:32:18;102273.03;;;21.10;41.92
32735;BME280;19112;51.076;3.706;2023-05-27T11:34:45;102061.91;;;20.23;41.23
32735;BME280;19112;51.076;3.706;2023-05-27T11:37:12;102218.47;;;20.88;40.91
32735;BME280;19112;51.076;3.706;2023-05-27T11:39:49;102317.44;;;21.71;41.07
32735;BME280;19112;51.076;3.706;2023-05-27T11:42:24;102063.03;;;20.40;39.80
32735;BME280;19112;51.076;3.706;2023-05-27T11:44:51;102245.25;;;21.70;39.44
32735;BME280;19112;51.076;3.706;2023-05-27T11:47:18;102261.41;;;21.84;39.77
32735;BME280;19112;51.076;3.706;2023-05-27T11:49:45;102104.50;;;20.84;40.06
32735;BME280;19112;51.076;3.706;2023-05-27T11:52:11;102244.34;;;21.68;39.18
32735;BME280;19112;51.076;3.706;2023-05-27T11:54:38;102043.78;;;20.66;39.01
32735;BME280;19112;51.076;3.706;2023-05-27T11:57:04;102116.34;;;21.10;37.91
32735;BME280;19112;51.076;3.706;2023-05-27T11:59:36;102025.41;;;20.97;38.75
32735;BME280;19112;51.076;3.706;2023-05-27T12:04:30;102167.19;;;22.14;37.86
32735;BME280;19112;51.076;3.706;2023-05-27T12:06:56;102283.69;;;22.94;37.17
32735;BME280;19112;51.076;3.706;2023-05-27T12:09:23;102281.94;;;22.97;38.41
32735;BME280;19112;51.076;3.706;2023-05-27T12:11:49;101758.81;;;19.42;38.41
32735;BME280;19112;51.076;3.706;2023-05-27T12:14:15;102003.91;;;20.81;37.63
32735;BME280;19112;51.076;3.706;2023-05-27T12:16:41;102121.41;;;21.76;37.37
32735;BME280;19112;51.076;3.706;2023-05-27T12:19:07;102056.28;;;21.67;38.05
32735;BME280;19112;51.076;3.706;2023-05-27T12:21:33;102268.44;;;22.87;38.42
32735;BME280;19112;51.076;3.706;2023-05-27T12:23:59;102265.75;;;22.84;37.06
32735;BME280;19112;51.076;3.706;2023-05-27T12:26:25;102093.16;;;22.11;37.00
32735;BME280;19112;51.076;3.706;2023-05-27T12:28:51;102248.94;;;23.15;36.77
32735;BME280;19112;51.076;3.706;2023-05-27T12:31:18;102258.78;;;23.15;36.09
32735;BME280;19112;51.076;3.706;2023-05-27T12:33:44;102203.31;;;22.88;37.12
32735;BME280;19112;51.076;3.706;2023-05-27T12:36:11;102242.75;;;23.38;36.38
32735;BME280;19112;51.076;3.706;2023-05-27T12:38:37;102099.69;;;22.82;36.29
32735;BME280;19112;51.076;3.706;2023-05-27T12:41:03;101959.28;;;21.93;35.48
32735;BME280;19112;51.076;3.706;2023-05-27T12:43:28;101981.69;;;22.19;34.64
32735;BME280;19112;51.076;3.706;2023-05-27T12:45:54;101780.53;;;20.73;35.00
32735;BME280;19112;51.076;3.706;2023-05-27T12:48:21;102079.00;;;22.35;34.68
32735;BME280;19112;51.076;3.706;2023-05-27T12:50:48;102074.72;;;22.86;33.62
32735;BME280;19112;51.076;3.706;2023-05-27T12:53:14;101994.97;;;22.04;34.25
32735;BME280;19112;51.076;3.706;2023-05-27T12:55:41;102221.34;;;23.51;34.30